sensor_id;sensor_type;location;lat;lon;timestamp;pressure;altitude;pressure_sealevel;temperature;humidity
47815;BME280;33579;50.058;18.130;2024-02-15T00:00:17;99747.03;;;7.64;100.00
47815;BME280;33579;50.058;18.130;2024-02-15T00:01:19;99754.59;;;7.68;100.00
47815;BME280;33579;50.058;18.130;2024-02-15T00:02:21;99752.72;;;7.70;100.00
47815;BME280;33579;50.058;18.130;2024-02-15T00:03:23;99747.56;;;7.69;100.00
47815;BME280;33579;50.058;18.130;2024-02-15T00:04:24;99754.59;;;7.68;100.00
47815;BME280;33579;50.058;18.130;2024-02-15T00:05:29;99751.78;;;7.71;100.00
47815;BME280;33579;50.058;18.130;2024-02-15T00:06:31;99748.28;;;7.71;100.00
47815;BME280;33579;50.058;18.130;2024-02-15T00:07:33;99748.22;;;7.72;100.00
47815;BME280;33579;50.058;18.130;2024-02-15T00:08:35;99752.28;;;7.77;100.00
47815;BME280;33579;50.058;18.130;2024-02-15T00:09:37;99756.50;;;7.79;100.00
47815;BME280;33579;50.058;18.130;2024-02-15T00:10:38;99753.88;;;7.79;100.00
47815;BME280;33579;50.058;18.130;2024-02-15T00:11:40;99764.25;;;7.81;100.00
47815;BME280;33579;50.058;18.130;2024-02-15T00:12:42;99766.75;;;7.82;100.00
47815;BME280;33579;50.058;18.130;2024-02-15T00:13:44;99757.97;;;7.83;100.00
47815;BME280;33579;50.058;18.130;2024-02-15T00:14:46;99764.25;;;7.81;100.00
47815;BME280;33579;50.058;18.130;2024-02-15T00:15:48;99769.16;;;7.72;100.00
47815;BME280;33579;50.058;18.130;2024-02-15T00:16:50;99765.72;;;7.72;100.00
47815;BME280;33579;50.058;18.130;2024-02-15T00:17:52;99770.97;;;7.72;100.00
47815;BME280;33579;50.058;18.130;2024-02-15T00:18:54;99762.16;;;7.73;100.00
47815;BME280;33579;50.058;18.130;2024-02-15T00:20:00;99770.97;;;7.72;100.00
47815;BME280;33579;50.058;18.130;2024-02-15T00:21:02;99765.59;;;7.73;100.00
47815;BME280;33579;50.058;18.130;2024-02-15T00:22:03;99766.34;;;7.76;100.00
47815;BME280;33579;50.058;18.130;2024-02-15T00:23:05;99772.44;;;7.76;100.00
47815;BME280;33579;50.058;18.130;2024-02-15T00:24:07;99768.88;;;7.77;100.00
47815;BME280;33579;50.058;18.130;2024-02-15T00:25:09;99774.91;;;7.78;100.00
47815;BME280;33579;50.058;18.130;2024-02-15T00:26:11;99771.38;;;7.79;100.00
47815;BME280;33579;50.058;18.130;2024-02-15T00:27:14;99771.28;;;7.80;100.00
47815;BME280;33579;50.058;18.130;2024-02-15T00:28:16;99766.25;;;7.77;100.00
47815;BME280;33579;50.058;18.130;2024-02-15T00:29:17;99773.38;;;7.75;100.00
47815;BME280;33579;50.058;18.130;2024-02-15T00:30:19;99770.00;;;7.73;100.00
47815;BME280;33579;50.058;18.130;2024-02-15T00:31:21;99767.50;;;7.71;100.00
47815;BME280;33579;50.058;18.130;2024-02-15T00:32:23;99768.44;;;7.70;100.00
47815;BME280;33579;50.058;18.130;2024-02-15T00:33:25;99770.97;;;7.72;100.00
47815;BME280;33579;50.058;18.130;2024-02-15T00:34:28;99767.41;;;7.73;100.00
47815;BME280;33579;50.058;18.130;2024-02-15T00:35:30;99768.34;;;7.72;100.00
47815;BME280;33579;50.058;18.130;2024-02-15T00:36:32;99763.84;;;7.74;100.00
47815;BME280;33579;50.058;18.130;2024-02-15T00:37:35;99762.97;;;7.73;100.00
47815;BME280;33579;50.058;18.130;2024-02-15T00:38:37;99767.28;;;7.74;100.00
47815;BME280;33579;50.058;18.130;2024-02-15T00:39:38;99762.88;;;7.75;100.00
47815;BME280;33579;50.058;18.130;2024-02-15T00:40:40;99765.50;;;7.75;100.00
47815;BME280;33579;50.058;18.130;2024-02-15T00:41:42;99760.34;;;7.73;100.00
47815;BME280;33579;50.058;18.130;2024-02-15T00:42:44;99758.59;;;7.74;100.00
47815;BME280;33579;50.058;18.130;2024-02-15T00:43:46;99755.97;;;7.74;100.00
47815;BME280;33579;50.058;18.130;2024-02-15T00:44:48;99758.69;;;7.72;100.00
47815;BME280;33579;50.058;18.130;2024-02-15T00:45:49;99756.28;;;7.69;100.00
47815;BME280;33579;50.058;18.130;2024-02-15T00:46:51;99759.28;;;7.63;100.00
47815;BME280;33579;50.058;18.130;2024-02-15T00:47:53;99762.13;;;7.60;100.00
47815;BME280;33579;50.058;18.130;2024-02-15T00:48:55;99755.84;;;7.63;100.00
47815;BME280;33579;50.058;18.130;2024-02-15T00:49:57;99761.09;;;7.63;100.00
47815;BME280;33579;50.058;18.130;2024-02-15T00:50:59;99765.59;;;7.61;100.00
47815;BME280;33579;50.058;18.130;2024-02-15T00:52:01;99759.91;;;7.54;100.00
47815;BME280;33579;50.058;18.130;2024-02-15T00:53:03;99770.78;;;7.48;100.00
47815;BME280;33579;50.058;18.130;2024-02-15T00:54:05;99762.09;;;7.47;100.00
47815;BME280;33579;50.058;18.130;2024-02-15T00:55:07;99757.69;;;7.48;100.00
47815;BME280;33579;50.058;18.130;2024-02-15T00:56:09;99760.38;;;7.46;100.00
47815;BME280;33579;50.058;18.130;2024-02-15T00:57:11;99760.50;;;7.44;100.00
47815;BME280;33579;50.058;18.130;2024-02-15T00:58:13;99754.72;;;7.39;100.00
47815;BME280;33579;50.058;18.130;2024-02-15T00:59:17;99757.44;;;7.38;100.00
47815;BME280;33579;50.058;18.130;2024-02-15T01:00:18;99754.09;;;7.36;100.00
47815;BME280;33579;50.058;18.130;2024-02-15T01:01:21;99757.53;;;7.36;100.00
47815;BME280;33579;50.058;18.130;2024-02-15T01:02:24;99748.84;;;7.36;100.00
47815;BME280;33579;50.058;18.130;2024-02-15T01:03:26;99755.66;;;7.38;100.00
47815;BME280;33579;50.058;18.130;2024-02-15T01:04:28;99752.09;;;7.39;100.00
47815;BME280;33579;50.058;18.130;2024-02-15T01:05:30;99748.53;;;7.40;100.00
47815;BME280;33579;50.058;18.130;2024-02-15T01:06:32;99754.63;;;7.41;100.00
47815;BME280;33579;50.058;18.130;2024-02-15T01:07:34;99747.28;;;7.46;100.00
47815;BME280;33579;50.058;18.130;2024-02-15T01:08:36;99741.16;;;7.47;100.00
47815;BME280;33579;50.058;18.130;2024-02-15T01:09:38;99744.50;;;7.49;100.00
47815;BME280;33579;50.058;18.130;2024-02-15T01:10:40;99746.25;;;7.49;100.00
47815;BME280;33579;50.058;18.130;2024-02-15T01:11:42;99729.09;;;7.44;100.00
47815;BME280;33579;50.058;18.130;2024-02-15T01:12:44;99742.06;;;7.46;100.00
47815;BME280;33579;50.058;18.130;2024-02-15T01:13:46;99730.84;;;7.44;100.00
47815;BME280;33579;50.058;18.130;2024-02-15T01:14:48;99735.25;;;7.43;100.00
47815;BME280;33579;50.058;18.130;2024-02-15T01:15:50;99728.97;;;7.46;100.00
47815;BME280;33579;50.058;18.130;2024-02-15T01:16:52;99728.53;;;7.39;100.00
47815;BME280;33579;50.058;18.130;2024-02-15T01:17:54;99723.28;;;7.39;100.00
47815;BME280;33579;50.058;18.130;2024-02-15T01:18:56;99723.28;;;7.39;100.00
47815;BME280;33579;50.058;18.130;2024-02-15T01:19:58;99729.28;;;7.41;100.00
47815;BME280;33579;50.058;18.130;2024-02-15T01:21:00;99721.44;;;7.41;100.00
47815;BME280;33579;50.058;18.130;2024-02-15T01:22:02;99723.72;;;7.46;100.00
47815;BME280;33579;50.058;18.130;2024-02-15T01:23:04;99726.16;;;7.49;100.00
47815;BME280;33579;50.058;18.130;2024-02-15T01:24:06;99723.25;;;7.54;100.00
47815;BME280;33579;50.058;18.130;2024-02-15T01:25:08;99725.66;;;7.57;100.00
47815;BME280;33579;50.058;18.130;2024-02-15T01:26:10;99728.06;;;7.60;100.00
47815;BME280;33579;50.058;18.130;2024-02-15T01:27:12;99727.13;;;7.61;100.00
47815;BME280;33579;50.058;18.130;2024-02-15T01:28:14;99727.34;;;7.58;100.00
47815;BME280;33579;50.058;18.130;2024-02-15T01:29:16;99730.91;;;7.57;100.00
47815;BME280;33579;50.058;18.130;2024-02-15T01:30:18;99725.66;;;7.57;100.00
47815;BME280;33579;50.058;18.130;2024-02-15T01:31:21;99729.22;;;7.56;100.00
47815;BME280;33579;50.058;18.130;2024-02-15T01:32:23;99730.03;;;7.56;100.00
47815;BME280;33579;50.058;18.130;2024-02-15T01:33:26;99734.25;;;7.59;100.00
47815;BME280;33579;50.058;18.130;2024-02-15T01:34:31;99731.34;;;7.64;100.00
47815;BME280;33579;50.058;18.130;2024-02-15T01:35:34;99742.44;;;7.67;100.00
47815;BME280;33579;50.058;18.130;2024-02-15T01:36:36;99734.47;;;7.69;100.00
47815;BME280;33579;50.058;18.130;2024-02-15T01:37:38;99742.44;;;7.67;100.00
47815;BME280;33579;50.058;18.130;2024-02-15T01:38:40;99740.88;;;7.65;100.00
47815;BME280;33579;50.058;18.130;2024-02-15T01:39:41;99738.34;;;7.63;100.00
47815;BME280;33579;50.058;18.130;2024-02-15T01:40:47;99738.34;;;7.63;100.00
47815;BME280;33579;50.058;18.130;2024-02-15T01:41:49;99735.84;;;7.62;100.00
47815;BME280;33579;50.058;18.130;2024-02-15T01:42:51;99735.84;;;7.62;100.00
47815;BME280;33579;50.058;18.130;2024-02-15T01:43:52;99738.63;;;7.58;100.00
47815;BME280;33579;50.058;18.130;2024-02-15T01:44:54;99731.63;;;7.59;100.00
47815;BME280;33579;50.058;18.130;2024-02-15T01:45:56;99735.84;;;7.62;100.00
47815;BME280;33579;50.058;18.130;2024-02-15T01:47:00;99731.53;;;7.61;100.00
47815;BME280;33579;50.058;18.130;2024-02-15T01:48:02;99740.88;;;7.65;100.00
47815;BME280;33579;50.058;18.130;2024-02-15T01:49:05;99739.91;;;7.66;100.00
47815;BME280;33579;50.058;18.130;2024-02-15T01:50:12;99739.84;;;7.67;100.00
47815;BME280;33579;50.058;18.130;2024-02-15T01:51:15;99730.09;;;7.69;100.00
47815;BME280;33579;50.058;18.130;2024-02-15T01:52:17;99730.81;;;7.71;100.00
47815;BME280;33579;50.058;18.130;2024-02-15T01:53:20;99728.94;;;7.73;100.00
47815;BME280;33579;50.058;18.130;2024-02-15T01:54:22;99730.50;;;7.76;100.00
47815;BME280;33579;50.058;18.130;2024-02-15T01:55:25;99730.50;;;7.76;100.00
47815;BME280;33579;50.058;18.130;2024-02-15T01:56:28;99731.47;;;7.75;100.00
47815;BME280;33579;50.058;18.130;2024-02-15T01:57:31;99729.56;;;7.77;100.00
47815;BME280;33579;50.058;18.130;2024-02-15T01:58:33;99725.28;;;7.76;100.00
47815;BME280;33579;50.058;18.130;2024-02-15T01:59:36;99723.47;;;7.77;100.00
47815;BME280;33579;50.058;18.130;2024-02-15T02:00:38;99718.25;;;7.77;100.00
47815;BME280;33579;50.058;18.130;2024-02-15T02:01:41;99719.31;;;7.74;100.00
47815;BME280;33579;50.058;18.130;2024-02-15T02:02:44;99714.38;;;7.69;100.00
47815;BME280;33579;50.058;18.130;2024-02-15T02:03:46;99712.06;;;7.65;100.00
47815;BME280;33579;50.058;18.130;2024-02-15T02:04:48;99718.31;;;7.62;100.00
47815;BME280;33579;50.058;18.130;2024-02-15T02:05:50;99718.53;;;7.59;100.00
47815;BME280;33579;50.058;18.130;2024-02-15T02:06:52;99716.13;;;7.56;100.00
47815;BME280;33579;50.058;18.130;2024-02-15T02:07:54;99721.66;;;7.51;100.00
47815;BME280;33579;50.058;18.130;2024-02-15T02:08:56;99719.88;;;7.52;100.00
47815;BME280;33579;50.058;18.130;2024-02-15T02:09:59;99717.25;;;7.52;100.00
47815;BME280;33579;50.058;18.130;2024-02-15T02:11:01;99716.94;;;7.56;100.00
47815;BME280;33579;50.058;18.130;2024-02-15T02:12:03;99718.31;;;7.62;100.00
47815;BME280;33579;50.058;18.130;2024-02-15T02:13:05;99711.19;;;7.64;100.00
47815;BME280;33579;50.058;18.130;2024-02-15T02:14:07;99716.25;;;7.67;100.00
47815;BME280;33579;50.058;18.130;2024-02-15T02:15:09;99711.03;;;7.67;100.00
47815;BME280;33579;50.058;18.130;2024-02-15T02:16:31;99712.88;;;7.65;100.00
47815;BME280;33579;50.058;18.130;2024-02-15T02:17:33;99713.00;;;7.64;100.00
47815;BME280;33579;50.058;18.130;2024-02-15T02:18:35;99714.69;;;7.65;100.00
47815;BME280;33579;50.058;18.130;2024-02-15T02:19:37;99717.28;;;7.65;100.00
47815;BME280;33579;50.058;18.130;2024-02-15T02:20:39;99722.53;;;7.65;100.00
47815;BME280;33579;50.058;18.130;2024-02-15T02:21:41;99712.88;;;7.65;100.00
47815;BME280;33579;50.058;18.130;2024-02-15T02:22:46;99717.38;;;7.63;100.00
47815;BME280;33579;50.058;18.130;2024-02-15T02:23:52;99716.88;;;7.58;100.00
47815;BME280;33579;50.058;18.130;2024-02-15T02:25:05;99712.00;;;7.52;100.00
47815;BME280;33579;50.058;18.130;2024-02-15T02:26:07;99709.59;;;7.49;100.00
47815;BME280;33579;50.058;18.130;2024-02-15T02:27:11;99703.63;;;7.47;100.00
47815;BME280;33579;50.058;18.130;2024-02-15T02:28:13;99712.34;;;7.47;100.00
47815;BME280;33579;50.058;18.130;2024-02-15T02:29:16;99704.38;;;7.49;100.00
47815;BME280;33579;50.058;18.130;2024-02-15T02:30:19;99705.31;;;7.48;100.00
47815;BME280;33579;50.058;18.130;2024-02-15T02:31:22;99700.16;;;7.46;100.00
47815;BME280;33579;50.058;18.130;2024-02-15T02:32:25;99694.19;;;7.44;100.00
47815;BME280;33579;50.058;18.130;2024-02-15T02:33:27;99695.25;;;7.41;100.00
47815;BME280;33579;50.058;18.130;2024-02-15T02:34:29;99691.06;;;7.39;100.00
47815;BME280;33579;50.058;18.130;2024-02-15T02:35:32;99691.06;;;7.39;100.00
47815;BME280;33579;50.058;18.130;2024-02-15T02:36:34;99693.97;;;7.34;100.00
47815;BME280;33579;50.058;18.130;2024-02-15T02:37:36;99689.69;;;7.33;100.00
47815;BME280;33579;50.058;18.130;2024-02-15T02:38:38;99694.72;;;7.36;100.00
47815;BME280;33579;50.058;18.130;2024-02-15T02:39:41;99690.22;;;7.38;100.00
47815;BME280;33579;50.058;18.130;2024-02-15T02:40:43;99695.34;;;7.40;100.00
47815;BME280;33579;50.058;18.130;2024-02-15T02:41:45;99690.03;;;7.41;100.00
47815;BME280;33579;50.058;18.130;2024-02-15T02:42:54;99692.53;;;7.43;100.00
47815;BME280;33579;50.058;18.130;2024-02-15T02:43:56;99686.47;;;7.42;100.00
47815;BME280;33579;50.058;18.130;2024-02-15T02:44:58;99682.25;;;7.40;100.00
47815;BME280;33579;50.058;18.130;2024-02-15T02:46:00;99685.81;;;7.39;100.00
47815;BME280;33579;50.058;18.130;2024-02-15T02:47:02;99689.78;;;7.31;100.00
47815;BME280;33579;50.058;18.130;2024-02-15T02:48:04;99687.16;;;7.31;100.00
47815;BME280;33579;50.058;18.130;2024-02-15T02:49:06;99685.47;;;7.30;100.00
47815;BME280;33579;50.058;18.130;2024-02-15T02:50:09;99687.16;;;7.31;100.00
47815;BME280;33579;50.058;18.130;2024-02-15T02:51:11;99678.28;;;7.34;100.00
47815;BME280;33579;50.058;18.130;2024-02-15T02:52:13;99686.97;;;7.35;100.00
47815;BME280;33579;50.058;18.130;2024-02-15T02:53:14;99683.41;;;7.36;100.00
47815;BME280;33579;50.058;18.130;2024-02-15T02:54:16;99685.19;;;7.35;100.00
47815;BME280;33579;50.058;18.130;2024-02-15T02:55:18;99680.44;;;7.27;100.00
47815;BME280;33579;50.058;18.130;2024-02-15T02:56:20;99678.66;;;7.28;100.00
47815;BME280;33579;50.058;18.130;2024-02-15T02:57:22;99674.50;;;7.25;100.00
47815;BME280;33579;50.058;18.130;2024-02-15T02:58:24;99684.00;;;7.26;100.00
47815;BME280;33579;50.058;18.130;2024-02-15T02:59:26;99674.50;;;7.25;100.00
47815;BME280;33579;50.058;18.130;2024-02-15T03:00:27;99682.22;;;7.27;100.00
47815;BME280;33579;50.058;18.130;2024-02-15T03:01:29;99677.84;;;7.27;100.00
47815;BME280;33579;50.058;18.130;2024-02-15T03:02:31;99677.94;;;7.26;100.00
47815;BME280;33579;50.058;18.130;2024-02-15T03:03:33;99680.75;;;7.23;100.00
47815;BME280;33579;50.058;18.130;2024-02-15T03:04:35;99683.47;;;7.21;100.00
47815;BME280;33579;50.058;18.130;2024-02-15T03:05:37;99679.06;;;7.22;100.00
47815;BME280;33579;50.058;18.130;2024-02-15T03:06:40;99682.63;;;7.21;100.00
47815;BME280;33579;50.058;18.130;2024-02-15T03:07:42;99679.28;;;7.19;100.00
47815;BME280;33579;50.058;18.130;2024-02-15T03:08:44;99675.94;;;7.16;100.00
47815;BME280;33579;50.058;18.130;2024-02-15T03:09:45;99682.84;;;7.17;100.00
47815;BME280;33579;50.058;18.130;2024-02-15T03:10:47;99682.06;;;7.15;100.00
47815;BME280;33579;50.058;18.130;2024-02-15T03:11:49;99683.78;;;7.16;100.00
47815;BME280;33579;50.058;18.130;2024-02-15T03:12:51;99690.13;;;7.12;100.00
47815;BME280;33579;50.058;18.130;2024-02-15T03:13:53;99679.66;;;7.12;100.00
47815;BME280;33579;50.058;18.130;2024-02-15T03:14:55;99690.44;;;7.08;100.00
47815;BME280;33579;50.058;18.130;2024-02-15T03:15:57;99692.09;;;7.09;100.00
47815;BME280;33579;50.058;18.130;2024-02-15T03:16:59;99692.22;;;7.07;100.00
47815;BME280;33579;50.058;18.130;2024-02-15T03:18:03;99696.59;;;7.07;100.00
47815;BME280;33579;50.058;18.130;2024-02-15T03:19:05;99695.66;;;7.08;100.00
47815;BME280;33579;50.058;18.130;2024-02-15T03:20:11;99703.41;;;7.09;100.00
47815;BME280;33579;50.058;18.130;2024-02-15T03:21:13;99700.72;;;7.11;100.00
47815;BME280;33579;50.058;18.130;2024-02-15T03:22:15;99708.44;;;7.12;100.00
47815;BME280;33579;50.058;18.130;2024-02-15T03:23:16;99707.72;;;7.10;100.00
47815;BME280;33579;50.058;18.130;2024-02-15T03:24:18;99704.44;;;7.07;100.00
47815;BME280;33579;50.058;18.130;2024-02-15T03:25:20;99700.88;;;7.08;100.00
47815;BME280;33579;50.058;18.130;2024-02-15T03:26:30;99706.03;;;7.09;100.00
47815;BME280;33579;50.058;18.130;2024-02-15T03:27:32;99702.25;;;7.00;100.00
47815;BME280;33579;50.058;18.130;2024-02-15T03:28:34;99711.53;;;6.92;100.00
47815;BME280;33579;50.058;18.130;2024-02-15T03:29:36;99705.19;;;6.81;100.00
47815;BME280;33579;50.058;18.130;2024-02-15T03:30:37;99703.81;;;6.75;100.00
47815;BME280;33579;50.058;18.130;2024-02-15T03:31:39;99701.28;;;6.74;100.00
47815;BME280;33579;50.058;18.130;2024-02-15T03:32:41;99701.34;;;6.72;100.00
47815;BME280;33579;50.058;18.130;2024-02-15T03:33:43;99703.16;;;6.72;100.00
47815;BME280;33579;50.058;18.130;2024-02-15T03:34:45;99702.13;;;6.74;100.00
47815;BME280;33579;50.058;18.130;2024-02-15T03:35:47;99699.41;;;6.76;100.00
47815;BME280;33579;50.058;18.130;2024-02-15T03:36:49;99699.41;;;6.76;100.00
47815;BME280;33579;50.058;18.130;2024-02-15T03:37:52;99706.31;;;6.77;100.00
47815;BME280;33579;50.058;18.130;2024-02-15T03:38:54;99699.31;;;6.78;100.00
47815;BME280;33579;50.058;18.130;2024-02-15T03:39:56;99703.06;;;6.73;100.00
47815;BME280;33579;50.058;18.130;2024-02-15T03:40:58;99697.19;;;6.70;100.00
47815;BME280;33579;50.058;18.130;2024-02-15T03:41:59;99702.41;;;6.70;100.00
47815;BME280;33579;50.058;18.130;2024-02-15T03:43:01;99696.63;;;6.65;100.00
47815;BME280;33579;50.058;18.130;2024-02-15T03:44:03;99694.75;;;6.67;100.00
47815;BME280;33579;50.058;18.130;2024-02-15T03:45:05;99697.25;;;6.68;100.00
47815;BME280;33579;50.058;18.130;2024-02-15T03:46:08;99687.94;;;6.64;100.00
47815;BME280;33579;50.058;18.130;2024-02-15T03:47:10;99689.06;;;6.60;100.00
47815;BME280;33579;50.058;18.130;2024-02-15T03:48:11;99693.75;;;6.55;100.00
47815;BME280;33579;50.058;18.130;2024-02-15T03:49:13;99696.34;;;6.55;100.00
47815;BME280;33579;50.058;18.130;2024-02-15T03:50:15;99697.38;;;6.52;100.00
47815;BME280;33579;50.058;18.130;2024-02-15T03:51:17;99695.50;;;6.54;100.00
47815;BME280;33579;50.058;18.130;2024-02-15T03:52:19;99692.81;;;6.56;100.00
47815;BME280;33579;50.058;18.130;2024-02-15T03:53:21;99698.88;;;6.56;100.00
47815;BME280;33579;50.058;18.130;2024-02-15T03:54:23;99704.00;;;6.58;100.00
47815;BME280;33579;50.058;18.130;2024-02-15T03:55:25;99697.00;;;6.58;100.00
47815;BME280;33579;50.058;18.130;2024-02-15T03:56:27;99700.44;;;6.59;100.00
47815;BME280;33579;50.058;18.130;2024-02-15T03:57:29;99698.78;;;6.58;100.00
47815;BME280;33579;50.058;18.130;2024-02-15T03:58:31;99697.22;;;6.55;100.00
47815;BME280;33579;50.058;18.130;2024-02-15T03:59:33;99695.81;;;6.50;100.00
47815;BME280;33579;50.058;18.130;2024-02-15T04:00:36;99700.38;;;6.46;100.00
47815;BME280;33579;50.058;18.130;2024-02-15T04:01:37;99695.63;;;6.38;100.00
47815;BME280;33579;50.058;18.130;2024-02-15T04:02:39;99699.34;;;6.34;100.00
47815;BME280;33579;50.058;18.130;2024-02-15T04:03:41;99701.34;;;6.30;100.00
47815;BME280;33579;50.058;18.130;2024-02-15T04:04:43;99703.84;;;6.32;100.00
47815;BME280;33579;50.058;18.130;2024-02-15T04:05:45;99699.75;;;6.28;100.00
47815;BME280;33579;50.058;18.130;2024-02-15T04:06:50;99705.25;;;6.23;100.00
47815;BME280;33579;50.058;18.130;2024-02-15T04:07:52;99697.31;;;6.25;100.00
47815;BME280;33579;50.058;18.130;2024-02-15T04:08:54;99696.28;;;6.27;100.00
47815;BME280;33579;50.058;18.130;2024-02-15T04:09:56;99698.72;;;6.30;100.00
47815;BME280;33579;50.058;18.130;2024-02-15T04:10:58;99697.94;;;6.28;100.00
47815;BME280;33579;50.058;18.130;2024-02-15T04:12:00;99693.31;;;6.33;100.00
47815;BME280;33579;50.058;18.130;2024-02-15T04:13:02;99696.66;;;6.36;100.00
47815;BME280;33579;50.058;18.130;2024-02-15T04:14:04;99696.47;;;6.39;100.00
47815;BME280;33579;50.058;18.130;2024-02-15T04:15:06;99695.44;;;6.41;100.00
47815;BME280;33579;50.058;18.130;2024-02-15T04:16:08;99696.38;;;6.40;100.00
47815;BME280;33579;50.058;18.130;2024-02-15T04:17:11;99700.59;;;6.43;100.00
47815;BME280;33579;50.058;18.130;2024-02-15T04:18:13;99698.59;;;6.46;100.00
47815;BME280;33579;50.058;18.130;2024-02-15T04:19:15;99697.56;;;6.49;100.00
47815;BME280;33579;50.058;18.130;2024-02-15T04:20:17;99700.09;;;6.51;100.00
47815;BME280;33579;50.058;18.130;2024-02-15T04:21:19;99698.72;;;6.45;100.00
47815;BME280;33579;50.058;18.130;2024-02-15T04:22:20;99700.59;;;6.43;100.00
47815;BME280;33579;50.058;18.130;2024-02-15T04:23:22;99695.81;;;6.35;100.00
47815;BME280;33579;50.058;18.130;2024-02-15T04:24:24;99701.97;;;6.34;100.00
47815;BME280;33579;50.058;18.130;2024-02-15T04:25:25;99702.63;;;6.38;100.00
47815;BME280;33579;50.058;18.130;2024-02-15T04:26:27;99702.44;;;6.41;100.00
47815;BME280;33579;50.058;18.130;2024-02-15T04:27:29;99712.59;;;6.45;100.00
47815;BME280;33579;50.058;18.130;2024-02-15T04:28:31;99707.22;;;6.49;100.00
47815;BME280;33579;50.058;18.130;2024-02-15T04:29:33;99709.16;;;6.45;100.00
47815;BME280;33579;50.058;18.130;2024-02-15T04:30:35;99704.22;;;6.40;100.00
47815;BME280;33579;50.058;18.130;2024-02-15T04:31:37;99705.44;;;6.35;100.00
47815;BME280;33579;50.058;18.130;2024-02-15T04:32:39;99704.13;;;6.27;100.00
47815;BME280;33579;50.058;18.130;2024-02-15T04:33:41;99701.63;;;6.26;100.00
47815;BME280;33579;50.058;18.130;2024-02-15T04:34:43;99697.50;;;6.22;100.00
47815;BME280;33579;50.058;18.130;2024-02-15T04:35:45;99696.84;;;6.18;100.00
47815;BME280;33579;50.058;18.130;2024-02-15T04:36:48;99700.38;;;6.17;100.00
47815;BME280;33579;50.058;18.130;2024-02-15T04:37:50;99700.75;;;6.11;100.00
47815;BME280;33579;50.058;18.130;2024-02-15T04:38:52;99703.72;;;6.04;100.00
47815;BME280;33579;50.058;18.130;2024-02-15T04:39:54;99698.78;;;6.00;100.00
47815;BME280;33579;50.058;18.130;2024-02-15T04:40:56;99703.91;;;6.01;100.00
47815;BME280;33579;50.058;18.130;2024-02-15T04:41:58;99700.28;;;6.04;100.00
47815;BME280;33579;50.058;18.130;2024-02-15T04:43:00;99705.31;;;6.07;100.00
47815;BME280;33579;50.058;18.130;2024-02-15T04:44:02;99702.06;;;6.03;100.00
47815;BME280;33579;50.058;18.130;2024-02-15T04:45:05;99700.44;;;6.01;100.00
47815;BME280;33579;50.058;18.130;2024-02-15T04:46:06;99702.22;;;6.00;100.00
47815;BME280;33579;50.058;18.130;2024-02-15T04:47:08;99701.47;;;5.98;100.00
47815;BME280;33579;50.058;18.130;2024-02-15T04:48:10;99699.88;;;5.96;100.00
47815;BME280;33579;50.058;18.130;2024-02-15T04:49:15;99701.94;;;5.90;100.00
47815;BME280;33579;50.058;18.130;2024-02-15T04:50:17;99700.31;;;5.88;100.00
47815;BME280;33579;50.058;18.130;2024-02-15T04:51:19;99700.31;;;5.88;100.00
47815;BME280;33579;50.058;18.130;2024-02-15T04:52:21;99697.72;;;5.88;100.00
47815;BME280;33579;50.058;18.130;2024-02-15T04:53:23;99694.44;;;5.84;100.00
47815;BME280;33579;50.058;18.130;2024-02-15T04:54:25;99693.50;;;5.85;100.00
47815;BME280;33579;50.058;18.130;2024-02-15T04:55:26;99696.78;;;5.89;100.00
47815;BME280;33579;50.058;18.130;2024-02-15T04:56:28;99701.34;;;5.85;100.00
47815;BME280;33579;50.058;18.130;2024-02-15T04:57:30;99697.63;;;5.89;100.00
47815;BME280;33579;50.058;18.130;2024-02-15T04:58:31;99701.81;;;5.92;100.00
47815;BME280;33579;50.058;18.130;2024-02-15T04:59:33;99702.59;;;5.94;100.00
47815;BME280;33579;50.058;18.130;2024-02-15T05:00:35;99696.78;;;5.89;100.00
47815;BME280;33579;50.058;18.130;2024-02-15T05:01:37;99703.53;;;5.93;100.00
47815;BME280;33579;50.058;18.130;2024-02-15T05:02:39;99698.94;;;5.97;100.00
47815;BME280;33579;50.058;18.130;2024-02-15T05:03:42;99700.53;;;5.99;100.00
47815;BME280;33579;50.058;18.130;2024-02-15T05:04:43;99700.72;;;5.96;100.00
47815;BME280;33579;50.058;18.130;2024-02-15T05:05:45;99699.97;;;5.94;100.00
47815;BME280;33579;50.058;18.130;2024-02-15T05:06:48;99698.47;;;5.90;100.00
47815;BME280;33579;50.058;18.130;2024-02-15T05:07:50;99706.28;;;5.90;100.00
47815;BME280;33579;50.058;18.130;2024-02-15T05:08:52;99701.19;;;5.88;100.00
47815;BME280;33579;50.058;18.130;2024-02-15T05:09:55;99702.38;;;5.83;100.00
47815;BME280;33579;50.058;18.130;2024-02-15T05:10:57;99698.38;;;5.77;100.00
47815;BME280;33579;50.058;18.130;2024-02-15T05:12:02;99698.63;;;5.72;100.00
47815;BME280;33579;50.058;18.130;2024-02-15T05:13:04;99704.19;;;5.66;100.00
47815;BME280;33579;50.058;18.130;2024-02-15T05:14:06;99701.03;;;5.61;100.00
47815;BME280;33579;50.058;18.130;2024-02-15T05:15:09;99700.03;;;5.63;100.00
47815;BME280;33579;50.058;18.130;2024-02-15T05:16:14;99705.69;;;5.56;100.00
47815;BME280;33579;50.058;18.130;2024-02-15T05:17:17;99703.50;;;5.48;100.00
47815;BME280;33579;50.058;18.130;2024-02-15T05:18:19;99705.28;;;5.47;100.00
47815;BME280;33579;50.058;18.130;2024-02-15T05:19:21;99698.19;;;5.49;100.00
47815;BME280;33579;50.058;18.130;2024-02-15T05:20:23;99705.69;;;5.56;100.00
47815;BME280;33579;50.058;18.130;2024-02-15T05:21:24;99702.22;;;5.55;100.00
47815;BME280;33579;50.058;18.130;2024-02-15T05:22:26;99705.09;;;5.51;100.00
47815;BME280;33579;50.058;18.130;2024-02-15T05:23:28;99703.78;;;5.43;100.00
47815;BME280;33579;50.058;18.130;2024-02-15T05:24:30;99701.50;;;5.37;100.00
47815;BME280;33579;50.058;18.130;2024-02-15T05:25:32;99703.19;;;5.38;100.00